Time;durP1;ratioP1;P1;durP2;ratioP2;P2;SDS_P1;SDS_P2;PMS_P1;PMS_P2;Temp;Humidity;BMP_temperature;BMP_pressure;BME280_temperature;BME280_humidity;BME280_pressure;Samples;Min_cycle;Max_cycle;Signal;HPM_P1;HPM_P2
2023/11/28 00:00:19;;;;;;;12.27;11.57;;;4.60;99.90;;;;;;4945975;29;20263;-79
2023/11/28 00:02:45;;;;;;;12.50;11.80;;;4.70;99.90;;;;;;4944966;29;20267;-78
2023/11/28 00:05:12;;;;;;;12.80;12.10;;;4.60;99.90;;;;;;4929382;29;20233;-79
2023/11/28 00:07:39;;;;;;;12.43;11.83;;;4.70;99.90;;;;;;4930379;29;20632;-78
2023/11/28 00:10:08;;;;;;;12.20;11.60;;;4.70;99.90;;;;;;4945709;29;20242;-78
2023/11/28 00:12:35;;;;;;;12.07;11.47;;;4.70;99.90;;;;;;4926922;29;20211;-79
2023/11/28 00:15:02;;;;;;;12.20;11.60;;;4.70;99.90;;;;;;4927911;29;20223;-78
2023/11/28 00:17:30;;;;;;;11.80;11.20;;;4.70;99.90;;;;;;4928168;29;20779;-78
2023/11/28 00:19:57;;;;;;;12.30;11.70;;;4.70;99.90;;;;;;4929954;29;20207;-78
2023/11/28 00:22:23;;;;;;;11.70;11.10;;;4.70;99.90;;;;;;4950334;29;20232;-78
2023/11/28 00:24:50;;;;;;;12.33;11.73;;;4.70;99.90;;;;;;4927476;29;20710;-77
2023/11/28 00:27:17;;;;;;;12.40;11.80;;;4.70;99.90;;;;;;4945354;29;20629;-78
2023/11/28 00:29:44;;;;;;;12.20;11.50;;;4.80;99.90;;;;;;4928225;29;20234;-78
2023/11/28 00:32:11;;;;;;;12.00;11.40;;;4.70;99.90;;;;;;4928571;29;20204;-78
2023/11/28 00:34:39;;;;;;;12.13;11.53;;;4.80;99.90;;;;;;4927351;29;20295;-77
2023/11/28 00:37:05;;;;;;;12.00;11.40;;;4.70;99.90;;;;;;4923327;29;20204;-78
2023/11/28 00:39:33;;;;;;;12.00;11.40;;;4.70;99.90;;;;;;4927728;29;20201;-78
2023/11/28 00:42:03;;;;;;;12.10;11.50;;;4.70;99.90;;;;;;4927638;29;20215;-78
2023/11/28 00:44:31;;;;;;;12.13;11.43;;;4.80;99.90;;;;;;4928499;29;20322;-77
2023/11/28 00:46:58;;;;;;;12.00;11.30;;;4.80;99.90;;;;;;4927598;29;20608;-78
2023/11/28 00:49:25;;;;;;;11.80;11.20;;;4.80;99.90;;;;;;4944490;29;20215;-78
2023/11/28 00:51:53;;;;;;;11.87;11.27;;;4.70;99.90;;;;;;4927010;29;20210;-78
2023/11/28 00:54:20;;;;;;;12.10;11.40;;;4.80;99.90;;;;;;4927485;29;20287;-78
2023/11/28 00:56:47;;;;;;;11.90;11.30;;;4.70;99.90;;;;;;4927250;29;20207;-79
2023/11/28 00:59:14;;;;;;;11.87;11.27;;;4.80;99.90;;;;;;4928511;29;20211;-78
2023/11/28 01:01:41;;;;;;;11.60;11.00;;;4.80;99.90;;;;;;4929964;29;20211;-78
2023/11/28 01:04:07;;;;;;;11.70;11.10;;;4.80;99.90;;;;;;4926520;29;20725;-78
2023/11/28 01:06:34;;;;;;;12.07;11.37;;;4.70;99.90;;;;;;4919601;29;20561;-78
2023/11/28 01:09:03;;;;;;;11.87;11.27;;;4.70;99.90;;;;;;4943288;29;20682;-78
2023/11/28 01:11:30;;;;;;;11.80;11.20;;;4.80;99.90;;;;;;4930910;29;20223;-78
2023/11/28 01:13:56;;;;;;;11.80;11.20;;;4.80;99.90;;;;;;4926348;29;20760;-77
2023/11/28 01:16:24;;;;;;;11.87;11.27;;;4.80;99.90;;;;;;4926588;29;20262;-78
2023/11/28 01:18:52;;;;;;;11.83;11.23;;;4.80;99.90;;;;;;4944606;29;20230;-78
2023/11/28 01:21:18;;;;;;;12.20;11.50;;;4.80;99.90;;;;;;4933460;29;20203;-77
2023/11/28 01:23:45;;;;;;;12.10;11.50;;;4.80;99.90;;;;;;4943125;29;20243;-77
2023/11/28 01:26:14;;;;;;;12.10;11.50;;;4.80;99.90;;;;;;4943869;29;20254;-78
2023/11/28 01:28:41;;;;;;;12.37;11.77;;;4.80;99.90;;;;;;4946432;29;20201;-78
2023/11/28 01:31:10;;;;;;;11.90;11.30;;;4.80;99.90;;;;;;4957616;29;20219;-78
2023/11/28 01:33:38;;;;;;;11.93;11.33;;;4.80;99.90;;;;;;4943733;29;20219;-78
2023/11/28 01:36:06;;;;;;;12.33;11.63;;;4.80;99.90;;;;;;4918230;29;20843;-78
2023/11/28 01:38:33;;;;;;;12.30;11.70;;;4.80;99.90;;;;;;4945312;29;20270;-78
2023/11/28 01:41:00;;;;;;;12.33;11.70;;;4.90;99.90;;;;;;4927209;29;20195;-78
2023/11/28 01:43:30;;;;;;;12.20;11.60;;;4.90;99.90;;;;;;4944046;29;20232;-78
2023/11/28 01:45:58;;;;;;;12.20;11.57;;;4.90;99.90;;;;;;4948880;29;20706;-78
2023/11/28 01:48:25;;;;;;;11.97;11.37;;;4.90;99.90;;;;;;4950481;29;20203;-77
2023/11/28 01:50:52;;;;;;;11.87;11.27;;;4.90;99.90;;;;;;4923567;29;20229;-78
2023/11/28 01:53:22;;;;;;;12.00;11.40;;;4.90;99.90;;;;;;4945761;29;20215;-78
2023/11/28 01:55:49;;;;;;;11.80;11.20;;;5.00;99.90;;;;;;4945750;29;20203;-78
2023/11/28 01:58:16;;;;;;;11.87;11.27;;;5.00;99.90;;;;;;4926598;29;20270;-77
2023/11/28 02:00:45;;;;;;;11.67;11.07;;;5.00;99.90;;;;;;4925741;29;20203;-77
2023/11/28 02:03:15;;;;;;;11.50;10.90;;;5.00;99.90;;;;;;4949899;29;20636;-78
2023/11/28 02:05:42;;;;;;;11.67;11.07;;;5.00;99.90;;;;;;4942112;29;20219;-79
2023/11/28 02:08:10;;;;;;;12.10;11.40;;;5.10;99.90;;;;;;4924724;29;20225;-77
2023/11/28 02:10:38;;;;;;;12.07;11.47;;;5.10;99.90;;;;;;4920193;29;20220;-79
2023/11/28 02:13:06;;;;;;;12.07;11.47;;;5.10;99.90;;;;;;4925321;29;20287;-78
2023/11/28 02:15:41;;;;;;;12.43;11.80;;;5.20;99.90;;;;;;4924685;29;20207;-78
2023/11/28 02:18:10;;;;;;;12.10;11.50;;;5.10;99.90;;;;;;4931663;29;20206;-78
2023/11/28 02:20:37;;;;;;;12.40;11.70;;;5.20;99.90;;;;;;4943549;29;20205;-78
2023/11/28 02:23:04;;;;;;;12.43;11.83;;;5.20;99.90;;;;;;4929078;29;20198;-78
2023/11/28 02:25:35;;;;;;;12.67;12.07;;;5.20;99.90;;;;;;4925094;29;20204;-78
2023/11/28 02:28:04;;;;;;;12.50;11.90;;;5.20;99.90;;;;;;4925138;29;20204;-78
2023/11/28 02:30:30;;;;;;;12.23;11.63;;;5.20;99.90;;;;;;4925561;29;20227;-78
2023/11/28 02:32:57;;;;;;;12.63;11.93;;;5.20;99.90;;;;;;4924569;29;20208;-78
2023/11/28 02:35:25;;;;;;;13.10;12.40;;;5.20;99.90;;;;;;4941204;29;20211;-78
2023/11/28 02:37:51;;;;;;;12.80;12.10;;;5.20;99.90;;;;;;4928435;29;20199;-78
2023/11/28 02:40:18;;;;;;;12.87;12.27;;;5.10;99.90;;;;;;4925072;29;20562;-79
2023/11/28 02:42:45;;;;;;;12.50;11.90;;;5.20;99.90;;;;;;4924752;29;20267;-78
2023/11/28 02:45:13;;;;;;;12.53;11.93;;;5.10;99.90;;;;;;4940493;29;20239;-78
2023/11/28 02:47:40;;;;;;;12.40;11.80;;;5.20;99.90;;;;;;4924737;29;20223;-78
2023/11/28 02:50:08;;;;;;;12.60;12.00;;;5.20;99.90;;;;;;4931490;29;20329;-78
2023/11/28 02:52:38;;;;;;;12.47;11.87;;;5.20;99.90;;;;;;4924336;29;20240;-78
2023/11/28 02:55:06;;;;;;;12.67;11.97;;;5.20;99.90;;;;;;4924645;29;20218;-79
2023/11/28 02:57:33;;;;;;;12.40;11.80;;;5.20;99.90;;;;;;4924016;29;20212;-78
2023/11/28 03:00:00;;;;;;;12.50;11.90;;;5.20;99.90;;;;;;4924641;29;20284;-78
2023/11/28 03:02:29;;;;;;;12.67;12.07;;;5.20;99.90;;;;;;4924206;29;20259;-79
2023/11/28 03:04:56;;;;;;;12.50;11.90;;;5.30;99.90;;;;;;4923217;29;20228;-78
2023/11/28 03:07:22;;;;;;;12.40;11.80;;;5.30;99.90;;;;;;4923993;29;20200;-78
2023/11/28 03:09:49;;;;;;;12.70;12.10;;;5.30;99.90;;;;;;4923907;29;20208;-79
2023/11/28 03:12:16;;;;;;;13.13;12.43;;;5.30;99.90;;;;;;4945845;29;20200;-78
2023/11/28 03:14:43;;;;;;;13.60;12.90;;;5.30;99.90;;;;;;4946687;29;20223;-80
2023/11/28 03:17:10;;;;;;;13.53;12.83;;;5.30;99.90;;;;;;4947041;29;20254;-78
2023/11/28 03:19:38;;;;;;;13.00;12.40;;;5.40;99.90;;;;;;4923351;29;20216;-77
2023/11/28 03:22:05;;;;;;;13.07;12.37;;;5.40;99.90;;;;;;4947686;29;20671;-77
2023/11/28 03:24:32;;;;;;;13.20;12.50;;;5.40;99.90;;;;;;4940988;29;20227;-78
2023/11/28 03:26:59;;;;;;;12.40;11.80;;;5.30;99.90;;;;;;4923769;29;20200;-77
2023/11/28 03:29:26;;;;;;;13.03;12.37;;;5.40;99.90;;;;;;4927605;29;20248;-79
2023/11/28 03:31:53;;;;;;;12.60;12.00;;;5.40;99.90;;;;;;4928055;28;20217;-78
2023/11/28 03:34:20;;;;;;;13.50;12.80;;;5.40;99.90;;;;;;4948204;29;20726;-77
2023/11/28 03:36:50;;;;;;;12.47;11.87;;;5.40;99.90;;;;;;4948709;28;20263;-79
2023/11/28 03:39:17;;;;;;;13.00;12.30;;;5.40;99.90;;;;;;4946674;29;20223;-79
2023/11/28 03:41:48;;;;;;;13.00;12.30;;;5.50;99.90;;;;;;4938831;29;20253;-80
2023/11/28 03:44:14;;;;;;;13.20;12.50;;;5.40;99.90;;;;;;4927046;29;20248;-78
2023/11/28 03:46:41;;;;;;;12.83;12.23;;;5.50;99.90;;;;;;4923543;29;20199;-78
2023/11/28 03:49:08;;;;;;;12.27;11.67;;;5.50;99.90;;;;;;4925800;29;20213;-77
2023/11/28 03:51:36;;;;;;;12.97;12.27;;;5.50;99.90;;;;;;4928754;29;20271;-80
2023/11/28 03:54:04;;;;;;;12.97;12.27;;;5.50;99.90;;;;;;4924122;29;20735;-82
2023/11/28 03:56:31;;;;;;;13.30;12.60;;;5.50;99.90;;;;;;4924501;29;20213;-82
2023/11/28 03:58:58;;;;;;;13.20;12.50;;;5.50;99.90;;;;;;4960865;28;20207;-81
2023/11/28 04:01:25;;;;;;;12.70;12.10;;;5.50;99.90;;;;;;4932406;29;20582;-82
2023/11/28 04:03:53;;;;;;;13.30;12.60;;;5.50;99.90;;;;;;4939722;29;20219;-82
2023/11/28 04:06:19;;;;;;;12.83;12.13;;;5.50;99.90;;;;;;4949184;29;20582;-82
2023/11/28 04:08:47;;;;;;;12.57;11.97;;;5.50;99.90;;;;;;4957212;29;20205;-82
2023/11/28 04:11:15;;;;;;;12.90;12.20;;;5.50;99.90;;;;;;4932174;28;20220;-82
2023/11/28 04:13:42;;;;;;;13.10;12.40;;;5.50;99.90;;;;;;4932197;29;20645;-78
2023/11/28 04:16:09;;;;;;;13.40;12.70;;;5.50;99.90;;;;;;4925692;29;20200;-79
2023/11/28 04:18:37;;;;;;;12.87;12.27;;;5.60;99.90;;;;;;4944013;29;20196;-80
2023/11/28 04:21:04;;;;;;;12.83;12.23;;;5.60;99.90;;;;;;4951772;28;20206;-80
2023/11/28 04:23:31;;;;;;;13.10;12.40;;;5.60;99.90;;;;;;4920733;29;20216;-83
2023/11/28 04:25:58;;;;;;;12.87;12.17;;;5.60;99.90;;;;;;4924168;29;20193;-83
2023/11/28 04:28:28;;;;;;;12.33;11.63;;;5.60;99.90;;;;;;4920702;29;20207;-82
2023/11/28 04:30:57;;;;;;;13.40;12.70;;;5.60;99.90;;;;;;4924177;29;22803;-78
2023/11/28 04:33:24;;;;;;;12.97;12.33;;;5.70;99.90;;;;;;4953383;28;20312;-79
2023/11/28 04:35:53;;;;;;;12.37;11.77;;;5.70;99.90;;;;;;4943534;29;20198;-79
2023/11/28 04:38:19;;;;;;;12.57;11.97;;;5.70;99.90;;;;;;4927414;29;20212;-80
2023/11/28 04:40:46;;;;;;;12.40;11.80;;;5.70;99.90;;;;;;4925840;29;20193;-80
2023/11/28 04:43:13;;;;;;;12.60;12.00;;;5.70;99.90;;;;;;4925928;29;20294;-80
2023/11/28 04:45:41;;;;;;;12.37;11.77;;;5.70;99.90;;;;;;4941153;29;20212;-80
2023/11/28 04:48:08;;;;;;;12.33;11.73;;;5.70;99.90;;;;;;4924788;29;20398;-80
2023/11/28 04:50:35;;;;;;;12.70;12.00;;;5.70;99.90;;;;;;4919749;29;20211;-80
2023/11/28 04:53:02;;;;;;;13.20;12.50;;;5.60;99.90;;;;;;4943571;29;20267;-80
2023/11/28 04:55:30;;;;;;;13.10;12.40;;;5.60;99.90;;;;;;4932391;29;20208;-80
2023/11/28 04:57:57;;;;;;;13.00;12.40;;;5.60;99.90;;;;;;4937921;28;20689;-80
2023/11/28 05:00:24;;;;;;;13.10;12.40;;;5.60;99.90;;;;;;4920294;29;20209;-80
2023/11/28 05:02:52;;;;;;;12.70;12.00;;;5.60;99.90;;;;;;4941212;29;20204;-80
2023/11/28 05:05:19;;;;;;;12.47;11.87;;;5.60;99.90;;;;;;4924082;29;20253;-80
2023/11/28 05:07:47;;;;;;;13.20;12.50;;;5.60;99.90;;;;;;4925289;29;20264;-80
2023/11/28 05:10:14;;;;;;;12.50;11.90;;;5.60;99.90;;;;;;4925698;29;20684;-80
2023/11/28 05:12:41;;;;;;;12.47;11.77;;;5.50;99.90;;;;;;4923339;29;20223;-80
2023/11/28 05:15:09;;;;;;;12.63;12.00;;;5.50;99.90;;;;;;4924709;29;20703;-79
2023/11/28 05:17:36;;;;;;;13.07;12.37;;;5.60;99.90;;;;;;4919509;29;20204;-80
2023/11/28 05:20:05;;;;;;;13.00;12.30;;;5.60;99.90;;;;;;4922646;29;20738;-80
2023/11/28 05:22:32;;;;;;;13.10;12.40;;;5.50;99.90;;;;;;4937356;28;20228;-80
2023/11/28 05:24:59;;;;;;;13.07;12.30;;;5.60;99.90;;;;;;4944153;29;20726;-80
2023/11/28 05:27:26;;;;;;;12.67;12.07;;;5.60;99.90;;;;;;4925793;29;20204;-80
2023/11/28 05:29:53;;;;;;;12.60;12.00;;;5.60;99.90;;;;;;4918733;29;20204;-79
2023/11/28 05:32:20;;;;;;;12.90;12.20;;;5.50;99.90;;;;;;4923893;29;20220;-78
2023/11/28 05:34:47;;;;;;;12.40;11.80;;;5.60;99.90;;;;;;4921900;29;20279;-78
2023/11/28 05:37:15;;;;;;;11.93;11.33;;;5.50;99.90;;;;;;4938482;29;20308;-78
2023/11/28 05:39:42;;;;;;;12.17;11.47;;;5.50;99.90;;;;;;4926278;29;20193;-78
2023/11/28 05:42:09;;;;;;;12.90;12.20;;;5.60;99.90;;;;;;4924498;29;20783;-79
2023/11/28 05:44:35;;;;;;;12.20;11.60;;;5.60;99.90;;;;;;4916971;29;20231;-80
2023/11/28 05:47:02;;;;;;;12.10;11.50;;;5.60;99.90;;;;;;4944238;29;20294;-78
2023/11/28 05:49:29;;;;;;;12.50;11.90;;;5.60;99.90;;;;;;4925095;29;20240;-78
2023/11/28 05:51:57;;;;;;;12.50;11.90;;;5.60;99.90;;;;;;4924959;29;20688;-78
2023/11/28 05:54:26;;;;;;;12.47;11.87;;;5.60;99.90;;;;;;4923270;29;20225;-78
2023/11/28 05:56:54;;;;;;;12.27;11.60;;;5.60;99.90;;;;;;4932258;29;20242;-79
2023/11/28 05:59:21;;;;;;;12.20;11.60;;;5.60;99.90;;;;;;4941365;29;20197;-80
2023/11/28 06:02:00;;;;;;;12.33;11.73;;;5.60;99.90;;;;;;4926133;29;20691;-80
2023/11/28 06:04:29;;;;;;;12.67;12.07;;;5.60;99.90;;;;;;4942745;29;20232;-80
2023/11/28 06:06:57;;;;;;;12.70;12.00;;;5.60;99.90;;;;;;4924458;29;20675;-80
2023/11/28 06:09:25;;;;;;;11.93;11.33;;;5.60;99.90;;;;;;4926641;29;20196;-80
2023/11/28 06:11:52;;;;;;;12.20;11.60;;;5.60;99.90;;;;;;4920512;29;20303;-80
2023/11/28 06:14:20;;;;;;;11.77;11.17;;;5.50;99.90;;;;;;4918292;29;20237;-80
2023/11/28 06:16:47;;;;;;;12.40;11.80;;;5.50;99.90;;;;;;4940053;29;20635;-80
2023/11/28 06:19:14;;;;;;;12.87;12.17;;;5.50;99.90;;;;;;4920217;29;20252;-80
2023/11/28 06:21:42;;;;;;;12.57;11.73;;;5.50;99.90;;;;;;4922478;29;20194;-80
2023/11/28 06:24:09;;;;;;;12.00;11.40;;;5.50;99.90;;;;;;4925370;29;20260;-80
2023/11/28 06:26:37;;;;;;;12.00;11.40;;;5.40;99.90;;;;;;4944237;29;20243;-80
2023/11/28 06:29:04;;;;;;;12.30;11.60;;;5.40;99.90;;;;;;4924749;29;20209;-80
2023/11/28 06:31:31;;;;;;;11.83;11.23;;;5.40;99.90;;;;;;4921890;29;20224;-80
2023/11/28 06:33:58;;;;;;;12.30;11.70;;;5.40;99.90;;;;;;4938203;29;20225;-80
2023/11/28 06:36:25;;;;;;;12.40;11.70;;;5.40;99.90;;;;;;4918317;29;20751;-80
2023/11/28 06:38:52;;;;;;;12.60;11.80;;;5.30;99.90;;;;;;4940817;29;20206;-80
2023/11/28 06:41:19;;;;;;;12.80;12.10;;;5.30;99.90;;;;;;4924593;29;20204;-80
2023/11/28 06:43:51;;;;;;;12.20;11.47;;;5.30;99.90;;;;;;4940455;29;20284;-80
2023/11/28 06:46:19;;;;;;;12.20;11.60;;;5.30;99.90;;;;;;4939394;28;20205;-81
2023/11/28 06:48:46;;;;;;;11.90;11.30;;;5.20;99.90;;;;;;4936770;29;20317;-81
2023/11/28 06:51:13;;;;;;;11.60;11.00;;;5.20;99.90;;;;;;4943838;29;20216;-81
2023/11/28 06:53:40;;;;;;;12.03;11.33;;;5.20;99.90;;;;;;4951336;28;20229;-80
2023/11/28 06:56:08;;;;;;;12.10;11.50;;;5.10;99.90;;;;;;4922543;29;20198;-80
2023/11/28 06:58:35;;;;;;;12.37;11.77;;;5.10;99.90;;;;;;4941801;29;20207;-81
2023/11/28 07:01:03;;;;;;;13.37;12.67;;;5.10;99.90;;;;;;4923922;29;20200;-79
2023/11/28 07:03:31;;;;;;;13.30;12.60;;;5.00;99.90;;;;;;4938691;29;20339;-80
2023/11/28 07:06:01;;;;;;;12.83;12.13;;;5.00;99.90;;;;;;4920682;29;20260;-80
2023/11/28 07:08:27;;;;;;;11.90;11.30;;;5.10;99.90;;;;;;4937538;29;20584;-81
2023/11/28 07:10:54;;;;;;;11.67;11.07;;;5.00;99.90;;;;;;4940896;29;20203;-82
2023/11/28 07:17:27;;;;;;;11.57;10.97;;;4.90;99.90;;;;;;4860789;29;20791;-84
2023/11/28 07:19:54;;;;;;;11.37;10.77;;;4.80;99.90;;;;;;4891577;28;20211;-81
2023/11/28 07:22:21;;;;;;;11.80;11.20;;;4.80;99.90;;;;;;4950686;29;20204;-84
2023/11/28 07:24:48;;;;;;;11.67;11.07;;;4.80;99.90;;;;;;4958391;28;20254;-79
2023/11/28 07:27:15;;;;;;;11.73;11.13;;;4.70;99.90;;;;;;4932168;29;20259;-82
2023/11/28 07:29:42;;;;;;;11.53;10.93;;;4.70;99.90;;;;;;4949534;29;20208;-81
2023/11/28 07:32:09;;;;;;;11.50;10.90;;;4.70;99.90;;;;;;4944689;28;20216;-81
2023/11/28 07:34:37;;;;;;;12.00;11.40;;;4.70;99.90;;;;;;4922671;29;20275;-81
2023/11/28 07:37:04;;;;;;;11.70;11.10;;;4.60;99.90;;;;;;4933941;29;20204;-80
2023/11/28 07:39:31;;;;;;;11.77;11.17;;;4.60;99.90;;;;;;4944942;29;20211;-81
2023/11/28 07:41:58;;;;;;;11.67;10.97;;;4.60;99.90;;;;;;4928468;29;20228;-81
2023/11/28 07:44:25;;;;;;;11.00;10.40;;;4.60;99.90;;;;;;4937709;29;20330;-80
2023/11/28 07:46:52;;;;;;;11.27;10.57;;;4.60;99.90;;;;;;4942314;29;20197;-80
2023/11/28 07:49:19;;;;;;;11.67;11.00;;;4.50;99.90;;;;;;4925718;29;20202;-81
2023/11/28 07:51:47;;;;;;;11.10;10.50;;;4.50;99.90;;;;;;4931545;29;20212;-82
2023/11/28 07:54:13;;;;;;;10.90;10.30;;;4.50;99.90;;;;;;4947577;29;20215;-81
2023/11/28 07:56:40;;;;;;;11.27;10.57;;;4.40;99.90;;;;;;4927417;29;20215;-81
2023/11/28 07:59:07;;;;;;;11.23;10.63;;;4.40;99.90;;;;;;4944792;29;20199;-85
2023/11/28 08:01:37;;;;;;;11.27;10.67;;;4.30;99.90;;;;;;4923854;29;20205;-85
2023/11/28 08:04:04;;;;;;;11.20;10.60;;;4.20;99.90;;;;;;4923378;29;20839;-83
2023/11/28 08:06:31;;;;;;;11.90;11.20;;;4.20;99.90;;;;;;4930286;29;20225;-84
2023/11/28 08:09:02;;;;;;;11.10;10.50;;;4.10;99.90;;;;;;4922532;29;20200;-85
2023/11/28 08:11:46;;;;;;;10.93;10.33;;;4.00;99.90;;;;;;4926684;29;20208;-83
2023/11/28 08:14:13;;;;;;;11.17;10.57;;;3.90;99.90;;;;;;4928148;29;20596;-80
2023/11/28 08:16:39;;;;;;;11.30;10.70;;;3.90;99.90;;;;;;4927565;29;20198;-80
2023/11/28 08:19:06;;;;;;;11.17;10.57;;;3.90;99.90;;;;;;4926456;29;20221;-79
2023/11/28 08:21:33;;;;;;;11.13;10.50;;;3.80;99.90;;;;;;4923214;29;20306;-81
2023/11/28 08:24:02;;;;;;;11.23;10.50;;;3.80;99.90;;;;;;4923723;29;20227;-78
2023/11/28 08:26:28;;;;;;;11.30;10.70;;;3.70;99.90;;;;;;4946521;29;20202;-79
2023/11/28 08:28:55;;;;;;;10.97;10.37;;;3.70;99.90;;;;;;4924386;29;20587;-78
2023/11/28 08:31:23;;;;;;;10.67;10.17;;;3.70;99.90;;;;;;4941306;29;20210;-78
2023/11/28 08:33:50;;;;;;;11.00;10.40;;;3.70;99.90;;;;;;4945627;29;20234;-79
2023/11/28 08:36:17;;;;;;;10.77;10.17;;;3.70;99.90;;;;;;4942047;29;20230;-79
2023/11/28 08:38:43;;;;;;;11.27;10.60;;;3.70;99.90;;;;;;4945783;29;20730;-78
2023/11/28 08:41:12;;;;;;;10.97;10.37;;;3.60;99.90;;;;;;4941241;29;20204;-78
2023/11/28 08:43:39;;;;;;;11.30;10.57;;;3.60;99.90;;;;;;4948056;29;20222;-79
2023/11/28 08:46:06;;;;;;;11.10;10.50;;;3.60;99.90;;;;;;4940151;29;20199;-79
2023/11/28 08:48:33;;;;;;;10.90;10.30;;;3.60;99.90;;;;;;4924508;29;20207;-78
2023/11/28 08:51:00;;;;;;;10.87;10.27;;;3.50;99.90;;;;;;4922559;29;20574;-79
2023/11/28 08:53:27;;;;;;;11.00;10.40;;;3.50;99.90;;;;;;4924426;29;20223;-78
2023/11/28 08:55:54;;;;;;;10.73;10.17;;;3.40;99.90;;;;;;4946156;28;20210;-79
2023/11/28 08:58:22;;;;;;;10.83;10.23;;;3.40;99.90;;;;;;4923454;29;20234;-78
2023/11/28 09:00:53;;;;;;;11.17;10.57;;;3.30;99.90;;;;;;4943979;29;20745;-78
2023/11/28 09:03:20;;;;;;;10.90;10.30;;;3.30;99.90;;;;;;4942448;29;20219;-78
2023/11/28 09:05:47;;;;;;;11.00;10.30;;;3.30;99.90;;;;;;4941619;29;20222;-78
2023/11/28 09:08:14;;;;;;;10.73;10.13;;;3.30;99.90;;;;;;4927737;29;20199;-78
2023/11/28 09:10:41;;;;;;;10.53;9.93;;;3.30;99.90;;;;;;4942234;29;20218;-79
2023/11/28 09:13:08;;;;;;;10.50;9.90;;;3.20;99.90;;;;;;4924524;29;20215;-78
2023/11/28 09:15:36;;;;;;;10.20;9.70;;;3.20;99.90;;;;;;4947898;29;20205;-79
2023/11/28 09:18:03;;;;;;;10.30;9.70;;;3.20;99.90;;;;;;4955732;28;20199;-79
2023/11/28 09:20:29;;;;;;;10.60;10.00;;;3.20;99.90;;;;;;4930472;29;20215;-78
2023/11/28 09:22:56;;;;;;;10.20;9.70;;;3.20;99.90;;;;;;4947131;29;20243;-78
2023/11/28 09:25:23;;;;;;;10.93;10.33;;;3.20;99.90;;;;;;4928444;29;20219;-79
2023/11/28 09:27:50;;;;;;;10.90;10.30;;;3.20;99.90;;;;;;4940474;29;20682;-78
2023/11/28 09:30:19;;;;;;;11.33;10.73;;;3.20;99.90;;;;;;4925697;29;20298;-78
2023/11/28 09:32:47;;;;;;;11.63;11.03;;;3.30;99.90;;;;;;4946848;29;20214;-79
2023/11/28 09:35:14;;;;;;;11.43;10.83;;;3.30;99.90;;;;;;4938865;29;20707;-77
2023/11/28 09:37:41;;;;;;;11.03;10.43;;;3.30;99.90;;;;;;4933825;29;20712;-79
2023/11/28 09:40:09;;;;;;;11.30;10.70;;;3.30;99.90;;;;;;4920505;29;20295;-79
2023/11/28 09:42:37;;;;;;;11.30;10.70;;;3.30;99.90;;;;;;4935889;29;20223;-79
2023/11/28 09:45:06;;;;;;;11.87;11.27;;;3.30;99.90;;;;;;4919409;29;20693;-81
2023/11/28 09:47:36;;;;;;;11.17;10.57;;;3.40;99.90;;;;;;4922782;29;20208;-80
2023/11/28 09:50:09;;;;;;;11.60;11.00;;;3.40;99.90;;;;;;4936933;29;20555;-80
2023/11/28 09:52:37;;;;;;;12.10;11.40;;;3.50;99.90;;;;;;4922502;29;20214;-80
2023/11/28 09:55:04;;;;;;;11.67;10.97;;;3.50;99.90;;;;;;4937338;29;20286;-79
2023/11/28 09:57:32;;;;;;;11.87;11.27;;;3.50;99.90;;;;;;4922404;29;20203;-77
2023/11/28 09:59:59;;;;;;;11.40;10.80;;;3.50;99.90;;;;;;4943373;28;20891;-77
2023/11/28 10:02:27;;;;;;;12.00;11.40;;;3.40;99.90;;;;;;4946995;28;20662;-81
2023/11/28 10:04:54;;;;;;;11.50;10.90;;;3.40;99.90;;;;;;4942306;29;20608;-78
2023/11/28 10:07:27;;;;;;;11.90;11.30;;;3.40;99.90;;;;;;4937446;29;20246;-80
2023/11/28 10:09:55;;;;;;;11.97;11.37;;;3.40;99.90;;;;;;4941534;29;20192;-79
2023/11/28 10:12:22;;;;;;;11.20;10.50;;;3.40;99.90;;;;;;4921932;29;20278;-79
2023/11/28 10:14:48;;;;;;;11.00;10.40;;;3.40;99.90;;;;;;4938706;29;20223;-78
2023/11/28 10:17:16;;;;;;;10.70;10.10;;;3.40;99.90;;;;;;4921774;29;20229;-83
2023/11/28 10:19:45;;;;;;;11.30;10.70;;;3.40;99.90;;;;;;4920438;29;20209;-80
2023/11/28 10:22:13;;;;;;;11.33;10.70;;;3.40;99.90;;;;;;4930610;29;20206;-82
2023/11/28 10:24:41;;;;;;;11.00;10.40;;;3.30;99.90;;;;;;4941452;29;20223;-80
2023/11/28 10:27:10;;;;;;;11.00;10.40;;;3.30;99.90;;;;;;4945034;29;20190;-78
2023/11/28 10:29:38;;;;;;;11.20;10.60;;;3.30;99.90;;;;;;4923962;29;20726;-81
2023/11/28 10:32:07;;;;;;;11.10;10.40;;;3.40;99.90;;;;;;4921399;29;20714;-80
2023/11/28 10:34:36;;;;;;;11.00;10.40;;;3.40;99.90;;;;;;4922267;29;20270;-81
2023/11/28 10:37:03;;;;;;;11.10;10.50;;;3.40;99.90;;;;;;4923351;29;20214;-80
2023/11/28 10:39:30;;;;;;;10.87;10.27;;;3.40;99.90;;;;;;4922967;29;20207;-81
2023/11/28 10:41:58;;;;;;;11.40;10.80;;;3.40;99.90;;;;;;4942634;29;20290;-81
2023/11/28 10:44:24;;;;;;;11.10;10.50;;;3.50;99.90;;;;;;4937306;29;20281;-81
2023/11/28 10:46:57;;;;;;;11.23;10.63;;;3.40;99.90;;;;;;4920213;29;20294;-81
2023/11/28 10:49:23;;;;;;;10.90;10.30;;;3.40;99.90;;;;;;4945134;28;20233;-81
2023/11/28 10:51:55;;;;;;;11.30;10.70;;;3.50;99.90;;;;;;4920913;29;20226;-81
2023/11/28 10:54:26;;;;;;;11.60;10.90;;;3.50;99.90;;;;;;4942727;29;20818;-81
2023/11/28 10:56:55;;;;;;;11.20;10.60;;;3.50;99.90;;;;;;4922836;29;20207;-80
2023/11/28 10:59:29;;;;;;;11.97;11.37;;;3.50;99.90;;;;;;4922530;29;20199;-81
2023/11/28 11:01:56;;;;;;;11.47;10.87;;;3.50;99.90;;;;;;4945979;29;20206;-81
2023/11/28 11:04:23;;;;;;;12.17;11.57;;;3.40;99.90;;;;;;4941325;29;20219;-81
2023/11/28 11:06:51;;;;;;;12.43;11.73;;;3.40;99.90;;;;;;4942061;29;20198;-80
2023/11/28 11:09:18;;;;;;;12.60;12.00;;;3.40;99.90;;;;;;4922986;29;20670;-81
2023/11/28 11:11:45;;;;;;;11.90;11.20;;;3.50;99.90;;;;;;4946958;29;20194;-80
2023/11/28 11:14:21;;;;;;;11.93;11.33;;;3.40;99.90;;;;;;4939568;29;20738;-80
2023/11/28 11:16:55;;;;;;;11.73;11.13;;;3.40;99.90;;;;;;4945869;29;20250;-81
2023/11/28 11:19:23;;;;;;;11.93;11.33;;;3.30;99.90;;;;;;4922620;29;20214;-81
2023/11/28 11:21:59;;;;;;;12.33;11.73;;;3.30;99.90;;;;;;4928217;29;20210;-81
2023/11/28 11:24:27;;;;;;;12.20;11.60;;;3.30;99.90;;;;;;4922310;29;20286;-80
2023/11/28 11:26:54;;;;;;;12.53;11.93;;;3.30;99.90;;;;;;4938863;29;20258;-81
2023/11/28 11:29:37;;;;;;;12.73;12.03;;;3.30;99.90;;;;;;4942778;29;20258;-81
2023/11/28 11:32:11;;;;;;;12.53;11.90;;;3.30;99.90;;;;;;4924801;29;20344;-81
2023/11/28 11:34:41;;;;;;;12.20;11.60;;;3.20;99.90;;;;;;4943240;29;20238;-81
2023/11/28 11:37:09;;;;;;;12.33;11.73;;;3.20;99.90;;;;;;4935961;29;20195;-81
2023/11/28 11:39:37;;;;;;;12.37;11.77;;;3.20;99.90;;;;;;4922055;29;20199;-81
2023/11/28 11:42:07;;;;;;;12.57;11.87;;;3.20;99.90;;;;;;4921963;29;20302;-81
2023/11/28 11:44:34;;;;;;;12.50;11.80;;;3.20;99.90;;;;;;4938666;29;20219;-80
2023/11/28 11:47:13;;;;;;;12.40;11.80;;;3.10;99.90;;;;;;4938874;29;20262;-81
2023/11/28 11:49:43;;;;;;;12.50;11.70;;;3.20;99.90;;;;;;4941491;29;20271;-81
2023/11/28 11:52:10;;;;;;;12.43;11.73;;;3.20;99.90;;;;;;4952053;28;20203;-77
2023/11/28 11:54:37;;;;;;;12.53;11.90;;;3.20;99.90;;;;;;4926055;29;20698;-80
2023/11/28 11:57:04;;;;;;;12.93;12.23;;;3.20;99.90;;;;;;4930112;29;20195;-81
2023/11/28 11:59:31;;;;;;;13.63;12.93;;;3.20;99.90;;;;;;4943437;29;20203;-80
2023/11/28 12:02:01;;;;;;;13.10;12.40;;;3.20;99.90;;;;;;4945962;29;20542;-79
2023/11/28 12:04:28;;;;;;;13.30;12.60;;;3.10;99.90;;;;;;4928878;29;20224;-79
2023/11/28 12:07:04;;;;;;;13.20;12.50;;;3.20;99.90;;;;;;4924735;29;20206;-80
2023/11/28 12:09:31;;;;;;;13.10;12.40;;;3.20;99.90;;;;;;4940609;29;20207;-82
2023/11/28 12:11:58;;;;;;;13.33;12.63;;;3.20;99.90;;;;;;4924854;29;20203;-80
2023/11/28 12:14:25;;;;;;;13.20;12.50;;;3.20;99.90;;;;;;4937559;29;20373;-80
2023/11/28 12:16:52;;;;;;;13.27;12.53;;;3.20;99.90;;;;;;4941342;29;20688;-81
2023/11/28 12:19:19;;;;;;;14.13;13.27;;;3.20;99.90;;;;;;4945843;29;20203;-80
2023/11/28 12:21:47;;;;;;;13.87;13.10;;;3.20;99.90;;;;;;4927043;29;20666;-80
2023/11/28 12:24:15;;;;;;;13.30;12.60;;;3.20;99.90;;;;;;4927538;29;20692;-81
2023/11/28 12:26:42;;;;;;;14.30;13.50;;;3.20;99.90;;;;;;4924350;29;20217;-81
2023/11/28 12:29:09;;;;;;;13.87;12.97;;;3.10;99.90;;;;;;4943844;29;20203;-79
2023/11/28 12:31:37;;;;;;;13.50;12.70;;;3.10;99.90;;;;;;4939097;29;20662;-80
2023/11/28 12:34:03;;;;;;;12.90;12.20;;;3.10;99.90;;;;;;4942255;29;20233;-78
2023/11/28 12:36:30;;;;;;;13.30;12.60;;;3.20;99.90;;;;;;4942479;29;20199;-78
2023/11/28 12:38:58;;;;;;;13.60;12.90;;;3.20;99.90;;;;;;4927861;29;20207;-78
2023/11/28 12:41:35;;;;;;;13.87;13.07;;;3.20;99.90;;;;;;4941628;29;20694;-78
2023/11/28 12:44:04;;;;;;;13.70;12.80;;;3.20;99.90;;;;;;4933997;29;20685;-78